Time;durP1;ratioP1;P1;durP2;ratioP2;P2;SDS_P1;SDS_P2;PMS_P1;PMS_P2;Temp;Humidity;BMP_temperature;BMP_pressure;BME280_temperature;BME280_humidity;BME280_pressure;Samples;Min_cycle;Max_cycle;Signal;HPM_P1;HPM_P2
2022/01/28 00:02:42;;;;;;;1.67;0.90;;;7.60;94.70;;;;;;5082201;28;20247;-48
2022/01/28 00:04:57;;;;;;;0.60;0.60;;;7.60;94.70;;;;;;5081202;28;20037;-48
2022/01/28 00:07:23;;;;;;;1.17;0.60;;;7.60;94.80;;;;;;5081399;28;20369;-47
2022/01/28 00:09:48;;;;;;;0.93;0.90;;;7.60;94.80;;;;;;5080275;28;20038;-48
2022/01/28 00:12:14;;;;;;;0.77;0.52;;;7.60;94.90;;;;;;5078899;28;20403;-48
2022/01/28 00:14:52;;;;;;;1.05;0.88;;;7.60;95.20;;;;;;5079188;28;20047;-47
2022/01/28 00:20:55;;;;;;;1.60;1.08;;;7.60;94.90;;;;;;5081858;28;20467;-48
2022/01/28 00:39:12;;;;;;;1.55;1.20;;;7.60;95.00;;;;;;5059669;28;20044;-48
2022/01/28 00:41:37;;;;;;;1.05;0.95;;;7.60;95.10;;;;;;5058670;28;20029;-48
2022/01/28 00:44:03;;;;;;;2.13;1.33;;;7.60;95.00;;;;;;5060369;28;20020;-48
2022/01/28 00:46:29;;;;;;;2.78;1.73;;;7.60;95.10;;;;;;5055383;28;20043;-48
2022/01/28 00:48:56;;;;;;;2.40;1.48;;;7.60;95.10;;;;;;5057916;28;20583;-48
2022/01/28 00:51:22;;;;;;;1.58;1.10;;;7.60;95.00;;;;;;5060847;28;20071;-48
2022/01/28 00:53:47;;;;;;;1.80;1.42;;;7.60;95.10;;;;;;5059111;28;20056;-48
2022/01/28 00:56:13;;;;;;;4.22;1.13;;;7.60;95.10;;;;;;5057296;28;20048;-48
2022/01/28 00:58:39;;;;;;;5.18;1.52;;;7.60;95.10;;;;;;5055881;28;20021;-48
2022/01/28 01:01:04;;;;;;;8.10;1.75;;;7.60;95.20;;;;;;5053493;28;20032;-48
2022/01/28 01:03:30;;;;;;;3.80;2.08;;;7.60;95.10;;;;;;5059730;28;20103;-48
2022/01/28 01:05:56;;;;;;;3.08;1.70;;;7.60;95.30;;;;;;5055485;28;20501;-48
2022/01/28 01:08:21;;;;;;;1.45;1.35;;;7.60;95.20;;;;;;5057697;28;20021;-48
2022/01/28 01:10:47;;;;;;;2.72;1.90;;;7.60;95.20;;;;;;5055965;28;20035;-48
2022/01/28 01:13:12;;;;;;;2.95;2.05;;;7.60;95.20;;;;;;5061094;28;20535;-48
2022/01/28 01:15:43;;;;;;;1.50;1.27;;;7.60;95.20;;;;;;5054430;28;20134;-48
2022/01/28 01:23:23;;;;;;;4.90;2.35;;;7.60;95.30;;;;;;5057185;28;20029;-48
2022/01/28 01:26:05;;;;;;;2.03;1.40;;;7.60;95.30;;;;;;5056369;28;20041;-48
2022/01/28 01:28:35;;;;;;;1.40;1.20;;;7.60;95.30;;;;;;5055959;28;20074;-48
2022/01/28 01:31:04;;;;;;;1.23;1.13;;;7.60;95.30;;;;;;5053944;28;20037;-48
2022/01/28 01:33:35;;;;;;;3.25;1.65;;;7.60;95.30;;;;;;5060377;28;20032;-48
2022/01/28 01:36:02;;;;;;;5.65;2.28;;;7.60;95.30;;;;;;5054485;28;20090;-48
2022/01/28 01:38:32;;;;;;;6.60;1.75;;;7.60;95.30;;;;;;5058666;28;20025;-48
2022/01/28 01:41:00;;;;;;;2.75;1.75;;;7.60;95.30;;;;;;5058579;28;20514;-48
2022/01/28 01:43:41;;;;;;;2.05;1.33;;;7.60;95.30;;;;;;5060328;28;20085;-48
2022/01/28 01:54:19;;;;;;;6.47;1.70;;;7.60;95.40;;;;;;5060290;28;20086;-48
2022/01/28 01:56:45;;;;;;;3.15;1.52;;;7.60;95.40;;;;;;5056018;28;20037;-48
2022/01/28 01:59:11;;;;;;;3.92;1.73;;;7.60;95.40;;;;;;5058386;28;20491;-48
2022/01/28 02:01:38;;;;;;;1.85;1.63;;;7.60;95.40;;;;;;5049247;28;20028;-48
2022/01/28 02:04:05;;;;;;;4.18;1.60;;;7.60;95.40;;;;;;5054746;28;20086;-48
2022/01/28 02:06:31;;;;;;;2.95;1.70;;;7.70;95.40;;;;;;5059658;28;20052;-48
2022/01/28 02:08:56;;;;;;;2.72;1.75;;;7.60;95.40;;;;;;5055443;28;20517;-48
2022/01/28 02:11:22;;;;;;;4.85;1.75;;;7.60;95.40;;;;;;5055711;28;20453;-47
2022/01/28 02:13:50;;;;;;;2.08;1.70;;;7.60;95.40;;;;;;5060013;28;20347;-48
2022/01/28 02:16:16;;;;;;;5.13;2.47;;;7.60;95.40;;;;;;5055746;28;20036;-48
2022/01/28 02:18:43;;;;;;;10.65;1.40;;;7.60;95.50;;;;;;5062491;28;20031;-48
2022/01/28 02:21:11;;;;;;;1.50;1.20;;;7.70;95.50;;;;;;5059599;28;20450;-48
2022/01/28 02:23:37;;;;;;;4.65;1.48;;;7.70;95.50;;;;;;5060562;28;20465;-48
2022/01/28 02:26:04;;;;;;;2.28;1.40;;;7.70;95.50;;;;;;5060660;28;20039;-48
2022/01/28 02:28:35;;;;;;;3.08;1.50;;;7.60;95.50;;;;;;5061504;28;20036;-48
2022/01/28 02:31:03;;;;;;;2.67;1.50;;;7.60;95.50;;;;;;5055829;28;20047;-48
2022/01/28 02:33:29;;;;;;;3.85;1.60;;;7.70;95.50;;;;;;5056380;28;20393;-48
2022/01/28 02:35:56;;;;;;;4.43;1.23;;;7.70;95.50;;;;;;5057967;28;20140;-48
2022/01/28 02:38:23;;;;;;;2.83;1.80;;;7.60;95.40;;;;;;5056647;28;20513;-48
2022/01/28 02:40:57;;;;;;;6.78;1.95;;;7.70;95.60;;;;;;5057708;28;20036;-48
2022/01/28 02:43:33;;;;;;;2.33;1.33;;;7.60;95.40;;;;;;5055629;28;20029;-48
2022/01/28 02:46:12;;;;;;;1.77;1.10;;;7.70;95.50;;;;;;5056037;28;20362;-48
2022/01/28 02:48:41;;;;;;;3.00;1.60;;;7.60;95.50;;;;;;5062020;28;20031;-48
2022/01/28 02:51:18;;;;;;;3.30;2.10;;;7.60;95.50;;;;;;5061169;28;20035;-48
2022/01/28 02:56:23;;;;;;;2.15;1.40;;;7.70;95.50;;;;;;5060235;28;20450;-49
2022/01/28 02:58:49;;;;;;;6.45;1.70;;;7.60;95.50;;;;;;5058600;28;20430;-48
2022/01/28 03:01:18;;;;;;;2.67;1.60;;;7.60;95.50;;;;;;5052883;28;20033;-48
2022/01/28 03:03:46;;;;;;;1.23;1.13;;;7.70;95.60;;;;;;5060223;28;20311;-48
2022/01/28 03:06:17;;;;;;;3.80;1.77;;;7.70;95.60;;;;;;5052033;28;20072;-48
2022/01/28 03:08:50;;;;;;;3.33;1.30;;;7.60;95.50;;;;;;5057914;28;20025;-47
2022/01/28 03:16:23;;;;;;;2.65;1.38;;;7.60;95.50;;;;;;5052098;28;20033;-48
2022/01/28 03:18:54;;;;;;;2.90;1.08;;;7.70;95.60;;;;;;5062943;28;20434;-48
2022/01/28 03:21:25;;;;;;;3.05;1.80;;;7.70;95.60;;;;;;5059811;28;20410;-48
2022/01/28 03:23:52;;;;;;;5.45;1.33;;;7.60;95.60;;;;;;5059219;28;20442;-48
2022/01/28 03:26:18;;;;;;;3.10;1.33;;;7.70;95.60;;;;;;5059270;28;20342;-48
2022/01/28 03:28:44;;;;;;;4.40;1.42;;;7.60;95.60;;;;;;5062400;28;20442;-48
2022/01/28 03:31:09;;;;;;;2.67;1.60;;;7.70;95.50;;;;;;5055287;28;20060;-48
2022/01/28 03:33:35;;;;;;;4.38;1.45;;;7.60;95.50;;;;;;5057517;28;20047;-48
2022/01/28 03:36:04;;;;;;;3.08;1.23;;;7.70;95.60;;;;;;5055340;28;20049;-48
2022/01/28 03:38:30;;;;;;;1.30;1.20;;;7.70;95.50;;;;;;5061388;28;20020;-48
2022/01/28 03:40:56;;;;;;;3.45;1.38;;;7.70;95.60;;;;;;5061790;28;20116;-48
2022/01/28 03:43:23;;;;;;;1.77;1.27;;;7.60;95.60;;;;;;5062487;28;20098;-48
2022/01/28 03:45:48;;;;;;;5.30;1.33;;;7.70;95.60;;;;;;5058538;28;20068;-48
2022/01/28 03:48:14;;;;;;;3.88;1.38;;;7.70;95.60;;;;;;5059162;28;20051;-48
2022/01/28 03:50:39;;;;;;;2.88;1.35;;;7.70;95.60;;;;;;5060631;28;20439;-48
2022/01/28 03:53:07;;;;;;;6.32;1.60;;;7.70;95.60;;;;;;5061684;28;20029;-48
2022/01/28 03:55:33;;;;;;;1.95;1.08;;;7.70;95.60;;;;;;5059938;28;20126;-48
2022/01/28 03:57:59;;;;;;;2.15;1.23;;;7.70;95.60;;;;;;5057763;28;20025;-48
2022/01/28 04:00:28;;;;;;;2.30;1.15;;;7.70;95.60;;;;;;5058896;28;20082;-48
2022/01/28 04:13:36;;;;;;;2.67;1.13;;;7.60;95.60;;;;;;5057757;28;20051;-48
2022/01/28 04:16:28;;;;;;;3.63;1.40;;;7.60;95.50;;;;;;5057253;28;20782;-48
2022/01/28 04:18:50;;;;;;;2.13;1.10;;;7.60;95.60;;;;;;5058810;28;20108;-48
2022/01/28 04:21:16;;;;;;;3.38;1.02;;;7.70;95.60;;;;;;5058954;28;20145;-48
2022/01/28 04:23:42;;;;;;;1.88;1.13;;;7.70;95.60;;;;;;5060030;28;20059;-48
2022/01/28 04:26:07;;;;;;;3.40;1.17;;;7.60;95.60;;;;;;5059831;28;20037;-48
2022/01/28 04:28:33;;;;;;;4.68;2.03;;;7.70;95.60;;;;;;5056915;28;20021;-48
2022/01/28 04:30:59;;;;;;;5.18;1.45;;;7.70;95.60;;;;;;5054295;28;20033;-48
2022/01/28 04:33:24;;;;;;;1.42;1.33;;;7.60;95.50;;;;;;5052476;28;20406;-48
2022/01/28 04:35:51;;;;;;;1.60;1.50;;;7.70;95.60;;;;;;5056194;28;20125;-48
2022/01/28 04:41:13;;;;;;;2.15;1.10;;;7.70;95.60;;;;;;5058640;28;20033;-48
2022/01/28 04:43:45;;;;;;;4.00;1.52;;;7.70;95.60;;;;;;5058745;28;20062;-48
2022/01/28 04:46:30;;;;;;;3.58;1.70;;;7.70;95.60;;;;;;5058773;28;20033;-48
2022/01/28 04:57:06;;;;;;;2.58;1.30;;;7.70;95.60;;;;;;5057713;28;20032;-48
2022/01/28 04:59:31;;;;;;;4.75;1.25;;;7.60;95.90;;;;;;5059556;28;20036;-48
2022/01/28 05:02:25;;;;;;;1.85;1.33;;;7.70;95.70;;;;;;5054140;28;20040;-48
2022/01/28 05:05:10;;;;;;;5.32;1.92;;;7.60;95.60;;;;;;5059387;28;20044;-48
2022/01/28 05:07:52;;;;;;;1.65;1.00;;;7.60;95.60;;;;;;5059818;28;20119;-48
2022/01/28 05:26:54;;;;;;;4.85;1.15;;;7.70;95.60;;;;;;5058842;28;20021;-48
2022/01/28 05:29:20;;;;;;;1.98;1.23;;;7.70;95.60;;;;;;5058095;28;20420;-48
2022/01/28 05:31:46;;;;;;;3.58;1.45;;;7.60;95.60;;;;;;5057170;28;20557;-48
2022/01/28 05:34:13;;;;;;;1.33;0.98;;;7.70;95.60;;;;;;5057217;28;20083;-48
2022/01/28 05:36:38;;;;;;;1.70;1.42;;;7.70;95.60;;;;;;5056062;28;20040;-48
2022/01/28 05:39:04;;;;;;;3.30;1.83;;;7.70;95.60;;;;;;5059577;28;20021;-48
2022/01/28 05:41:30;;;;;;;5.20;1.70;;;7.70;95.60;;;;;;5058667;28;20032;-48
2022/01/28 05:43:56;;;;;;;3.90;1.40;;;7.70;95.60;;;;;;5061309;28;20021;-48
2022/01/28 05:46:22;;;;;;;4.50;1.73;;;7.70;95.60;;;;;;5060274;28;20116;-48
2022/01/28 05:48:47;;;;;;;1.92;1.27;;;7.70;95.60;;;;;;5053325;28;20044;-48
2022/01/28 05:51:13;;;;;;;2.53;1.30;;;7.60;95.60;;;;;;5060111;28;20033;-48
2022/01/28 05:53:39;;;;;;;2.15;1.60;;;7.70;95.60;;;;;;5064153;28;20056;-48
2022/01/28 05:56:05;;;;;;;2.63;1.85;;;7.60;95.60;;;;;;5061798;28;20262;-47
2022/01/28 05:58:30;;;;;;;5.63;1.60;;;7.70;95.60;;;;;;5059618;28;20446;-49
2022/01/28 06:00:56;;;;;;;3.30;1.83;;;7.70;95.60;;;;;;5056005;28;20035;-48
2022/01/28 06:03:21;;;;;;;5.72;1.48;;;7.70;95.60;;;;;;5054301;28;20028;-48
2022/01/28 06:05:48;;;;;;;6.78;1.48;;;7.70;95.60;;;;;;5056498;28;21041;-48
2022/01/28 06:08:14;;;;;;;6.70;1.45;;;7.70;95.60;;;;;;5063801;28;20446;-48
2022/01/28 06:10:40;;;;;;;7.90;1.50;;;7.60;95.60;;;;;;5062014;28;20418;-48
2022/01/28 06:13:05;;;;;;;2.08;1.60;;;7.70;95.60;;;;;;5058110;28;20025;-48
2022/01/28 06:15:32;;;;;;;2.53;1.58;;;7.70;95.60;;;;;;5060999;28;20080;-48
2022/01/28 06:17:57;;;;;;;3.70;1.77;;;7.70;95.60;;;;;;5056934;28;20082;-47
2022/01/28 06:20:23;;;;;;;5.05;1.65;;;7.70;95.60;;;;;;5059713;28;20029;-48
2022/01/28 06:22:49;;;;;;;6.90;2.10;;;7.70;95.60;;;;;;5063754;28;20384;-48
2022/01/28 06:25:16;;;;;;;4.75;1.58;;;7.70;95.60;;;;;;5060222;28;20447;-48
2022/01/28 06:27:42;;;;;;;4.40;1.50;;;7.70;95.60;;;;;;5056936;28;20024;-48
2022/01/28 06:30:09;;;;;;;6.82;1.17;;;7.70;95.60;;;;;;5060320;28;20036;-48
2022/01/28 06:32:35;;;;;;;7.50;1.55;;;7.70;95.60;;;;;;5058807;28;20033;-48
2022/01/28 06:35:07;;;;;;;7.57;1.92;;;7.60;95.50;;;;;;5061105;28;20033;-48
2022/01/28 06:37:36;;;;;;;6.63;2.50;;;7.70;95.60;;;;;;5060074;28;20082;-48
2022/01/28 06:40:04;;;;;;;4.03;2.70;;;7.60;95.50;;;;;;5060370;28;20100;-48
2022/01/28 06:42:30;;;;;;;6.18;2.10;;;7.70;95.50;;;;;;5062135;28;20052;-48
2022/01/28 06:44:55;;;;;;;4.18;1.60;;;7.70;95.50;;;;;;5054020;28;20445;-48
2022/01/28 06:47:21;;;;;;;1.92;1.67;;;7.70;95.50;;;;;;5067078;28;20041;-48
2022/01/28 06:49:47;;;;;;;3.55;1.80;;;7.60;95.50;;;;;;5067102;28;20099;-48
2022/01/28 06:52:12;;;;;;;10.55;1.92;;;7.60;95.50;;;;;;5071236;28;20368;-48
2022/01/28 06:54:38;;;;;;;6.88;3.13;;;7.60;95.50;;;;;;5072387;28;20040;-48
2022/01/28 06:57:04;;;;;;;1.73;1.23;;;7.60;95.50;;;;;;5069849;28;20040;-48
2022/01/28 06:59:29;;;;;;;2.05;1.33;;;7.60;95.50;;;;;;5071186;28;20477;-48
2022/01/28 07:01:55;;;;;;;3.50;1.45;;;7.60;95.50;;;;;;5062417;28;20075;-48
2022/01/28 07:04:20;;;;;;;3.30;1.63;;;7.60;95.50;;;;;;5062937;28;20420;-48
2022/01/28 07:06:46;;;;;;;3.35;1.48;;;7.60;95.50;;;;;;5062372;28;20068;-48
2022/01/28 07:09:12;;;;;;;8.68;1.65;;;7.60;95.50;;;;;;5071180;28;20438;-48
2022/01/28 07:11:38;;;;;;;5.72;2.17;;;7.60;95.50;;;;;;5066648;28;20028;-48
2022/01/28 07:14:04;;;;;;;3.67;1.70;;;7.60;95.50;;;;;;5069788;28;20040;-47
2022/01/28 07:16:30;;;;;;;3.15;1.38;;;7.60;95.60;;;;;;5068490;28;20040;-47
2022/01/28 07:18:56;;;;;;;4.18;1.60;;;7.60;95.90;;;;;;5067140;28;20063;-48
2022/01/28 07:21:21;;;;;;;5.57;2.35;;;7.60;95.50;;;;;;5068889;28;20342;-48
2022/01/28 07:23:47;;;;;;;2.47;1.45;;;7.60;95.60;;;;;;5068298;28;20025;-48
2022/01/28 07:26:13;;;;;;;3.00;1.58;;;7.60;95.60;;;;;;5071381;28;20071;-48
2022/01/28 07:28:40;;;;;;;2.75;1.40;;;7.60;95.60;;;;;;5066325;28;20381;-48
2022/01/28 07:31:08;;;;;;;7.18;1.70;;;7.60;95.60;;;;;;5067328;28;20128;-48
2022/01/28 07:33:33;;;;;;;3.25;1.50;;;7.60;95.60;;;;;;5068777;28;20028;-48
2022/01/28 07:36:00;;;;;;;3.90;1.65;;;7.60;95.60;;;;;;5070302;28;20336;-48
2022/01/28 07:38:26;;;;;;;1.95;1.55;;;7.60;95.60;;;;;;5069924;28;20028;-48
2022/01/28 07:40:52;;;;;;;5.97;1.75;;;7.60;95.60;;;;;;5064497;28;20055;-48
2022/01/28 07:43:17;;;;;;;2.92;1.55;;;7.60;95.60;;;;;;5070781;28;20055;-48
2022/01/28 07:45:43;;;;;;;3.85;1.98;;;7.60;95.60;;;;;;5068754;28;20525;-48
2022/01/28 07:48:09;;;;;;;3.35;1.60;;;7.60;95.60;;;;;;5069288;28;20028;-48
2022/01/28 07:50:35;;;;;;;10.63;1.48;;;7.50;95.50;;;;;;5070950;28;20550;-48
2022/01/28 07:53:00;;;;;;;9.98;1.95;;;7.50;95.70;;;;;;5068682;28;20030;-48
2022/01/28 07:55:26;;;;;;;5.93;1.95;;;7.60;95.70;;;;;;5068219;28;20112;-48
2022/01/28 07:57:52;;;;;;;3.15;1.48;;;7.60;95.60;;;;;;5070832;28;20036;-48
2022/01/28 08:00:17;;;;;;;2.88;1.65;;;7.60;95.70;;;;;;5069063;28;20453;-48
2022/01/28 08:02:43;;;;;;;2.63;1.73;;;7.60;95.60;;;;;;5068935;28;20422;-48
2022/01/28 08:05:10;;;;;;;4.30;1.85;;;7.60;95.60;;;;;;5067044;28;20378;-48
2022/01/28 08:07:36;;;;;;;1.98;1.25;;;7.50;95.60;;;;;;5067657;28;20032;-48
2022/01/28 08:10:01;;;;;;;5.13;1.83;;;7.50;95.60;;;;;;5069413;28;20025;-48
2022/01/28 08:12:27;;;;;;;3.60;1.77;;;7.50;95.60;;;;;;5071012;28;20051;-48
2022/01/28 08:14:52;;;;;;;4.95;1.60;;;7.50;95.70;;;;;;5068917;28;20442;-48
2022/01/28 08:17:18;;;;;;;2.17;1.55;;;7.60;95.70;;;;;;5073892;28;20047;-48
2022/01/28 08:19:44;;;;;;;5.90;1.52;;;7.60;95.70;;;;;;5068103;28;20044;-48
2022/01/28 08:22:09;;;;;;;3.15;1.20;;;7.60;95.70;;;;;;5068910;28;20093;-48
2022/01/28 08:24:35;;;;;;;3.10;1.38;;;7.60;95.80;;;;;;5070977;28;20352;-48
2022/01/28 08:27:01;;;;;;;4.70;2.20;;;7.60;95.80;;;;;;5073457;28;20028;-48
2022/01/28 08:29:26;;;;;;;3.80;1.73;;;7.60;95.80;;;;;;5073397;28;20464;-48
2022/01/28 08:31:52;;;;;;;4.82;2.08;;;7.60;95.80;;;;;;5068751;28;20039;-47
2022/01/28 08:34:17;;;;;;;6.03;1.80;;;7.60;95.70;;;;;;5067479;28;20458;-48
2022/01/28 08:36:43;;;;;;;2.40;1.50;;;7.60;95.70;;;;;;5069256;28;20103;-48
2022/01/28 08:39:10;;;;;;;6.20;1.48;;;7.60;95.80;;;;;;5070926;28;20033;-48
2022/01/28 08:41:39;;;;;;;2.20;1.63;;;7.60;95.80;;;;;;5071259;28;20025;-48
2022/01/28 08:44:04;;;;;;;3.65;1.67;;;7.60;95.70;;;;;;5072452;28;20017;-48
2022/01/28 08:46:30;;;;;;;3.03;1.65;;;7.60;96.00;;;;;;5072433;28;20468;-48
2022/01/28 08:48:56;;;;;;;2.45;1.77;;;7.60;96.00;;;;;;5060772;28;20024;-48
2022/01/28 08:51:21;;;;;;;8.38;1.85;;;7.60;96.20;;;;;;5072021;28;20031;-48
2022/01/28 08:53:47;;;;;;;6.88;2.55;;;7.60;96.00;;;;;;5075967;28;20012;-48
2022/01/28 08:56:13;;;;;;;2.80;1.20;;;7.60;95.90;;;;;;5071744;28;20046;-48
2022/01/28 08:58:39;;;;;;;4.50;1.35;;;7.60;96.00;;;;;;5065047;28;20117;-48
2022/01/28 09:01:04;;;;;;;2.15;1.25;;;7.60;96.00;;;;;;5065227;28;20373;-48
2022/01/28 09:03:30;;;;;;;3.50;1.52;;;7.60;96.00;;;;;;5063785;28;20053;-48
2022/01/28 09:05:56;;;;;;;1.83;1.70;;;7.70;96.30;;;;;;5066859;28;20035;-48
2022/01/28 09:08:22;;;;;;;3.90;1.67;;;7.70;96.20;;;;;;5070378;28;20035;-48
2022/01/28 09:10:57;;;;;;;2.17;1.02;;;7.70;96.00;;;;;;5072379;28;20029;-48
2022/01/28 09:13:27;;;;;;;2.38;1.25;;;7.70;96.00;;;;;;5066476;28;20028;-48
2022/01/28 09:15:55;;;;;;;0.73;0.73;;;7.70;96.20;;;;;;5069383;28;20036;-48
2022/01/28 09:18:22;;;;;;;6.80;1.20;;;7.70;96.10;;;;;;5068642;28;20115;-48
2022/01/28 09:20:48;;;;;;;4.75;1.15;;;7.70;96.20;;;;;;5071090;28;20082;-48
2022/01/28 09:23:14;;;;;;;4.88;1.25;;;7.80;96.20;;;;;;5073238;28;20024;-48
2022/01/28 09:25:40;;;;;;;6.90;1.25;;;7.80;96.20;;;;;;5074597;28;20021;-48
2022/01/28 09:28:06;;;;;;;1.17;0.93;;;7.80;96.20;;;;;;5076943;28;20032;-48
2022/01/28 09:30:33;;;;;;;6.00;1.20;;;7.80;96.20;;;;;;5075647;28;20020;-48
2022/01/28 09:32:59;;;;;;;5.85;1.83;;;7.80;96.10;;;;;;5076395;28;20020;-48
2022/01/28 09:35:25;;;;;;;3.25;1.23;;;7.80;96.10;;;;;;5074128;28;20040;-48
2022/01/28 09:37:52;;;;;;;2.25;1.30;;;7.80;96.30;;;;;;5068801;28;20244;-48
2022/01/28 09:40:18;;;;;;;4.90;1.90;;;7.80;96.30;;;;;;5074180;28;20056;-48
2022/01/28 09:42:47;;;;;;;6.18;1.90;;;7.80;96.40;;;;;;5072687;28;20044;-48
2022/01/28 09:45:17;;;;;;;4.68;2.58;;;7.80;96.30;;;;;;5074291;28;20040;-48
2022/01/28 09:47:46;;;;;;;5.20;1.75;;;7.80;96.30;;;;;;5075399;28;20027;-48
2022/01/28 09:50:13;;;;;;;2.28;1.38;;;7.90;96.40;;;;;;5072891;28;20032;-48
2022/01/28 09:52:38;;;;;;;6.47;1.73;;;7.90;96.40;;;;;;5075989;28;20071;-48
2022/01/28 09:55:04;;;;;;;0.52;0.52;;;7.90;96.80;;;;;;5078619;28;20386;-48
2022/01/28 09:57:31;;;;;;;1.15;0.85;;;8.00;96.80;;;;;;5075848;28;20047;-48
2022/01/28 09:59:57;;;;;;;0.80;0.65;;;8.00;96.90;;;;;;5073716;28;20021;-47
2022/01/28 10:02:50;;;;;;;6.75;1.85;;;8.00;97.00;;;;;;5075398;28;20035;-48
2022/01/28 10:05:18;;;;;;;0.77;0.70;;;7.90;96.90;;;;;;5069748;28;20033;-48
2022/01/28 10:08:01;;;;;;;1.95;1.30;;;8.00;97.20;;;;;;5072017;28;20020;-48
2022/01/28 10:10:42;;;;;;;1.52;1.05;;;8.00;97.00;;;;;;5073601;28;20356;-48
2022/01/28 10:13:18;;;;;;;2.95;1.20;;;8.00;97.00;;;;;;5075981;28;20777;-48
2022/01/28 10:15:57;;;;;;;1.30;1.20;;;8.00;97.20;;;;;;5068469;28;20052;-48
2022/01/28 10:18:54;;;;;;;4.47;1.67;;;8.00;97.20;;;;;;5073281;28;20021;-48
2022/01/28 10:21:33;;;;;;;6.03;1.30;;;8.00;97.30;;;;;;5074253;28;20020;-48
2022/01/28 10:24:15;;;;;;;4.85;1.15;;;8.00;97.40;;;;;;5073854;28;20101;-48
2022/01/28 10:27:06;;;;;;;3.08;1.45;;;8.00;97.40;;;;;;5074314;28;20028;-48
2022/01/28 10:29:40;;;;;;;4.78;1.20;;;8.00;97.30;;;;;;5072004;28;20495;-48
2022/01/28 10:32:11;;;;;;;2.63;1.20;;;8.10;97.30;;;;;;5074265;28;20032;-48
2022/01/28 10:34:45;;;;;;;2.28;1.58;;;8.10;97.20;;;;;;5073145;28;20083;-48
2022/01/28 10:37:30;;;;;;;2.47;1.20;;;8.10;97.50;;;;;;5073699;28;20063;-48
2022/01/28 10:40:01;;;;;;;4.35;1.75;;;8.10;97.50;;;;;;5072550;28;20052;-48
2022/01/28 10:42:33;;;;;;;1.67;1.10;;;8.10;97.60;;;;;;5070138;28;20028;-48
2022/01/28 10:45:00;;;;;;;4.68;1.45;;;8.10;97.30;;;;;;5074086;28;20033;-48
2022/01/28 10:47:55;;;;;;;3.40;1.70;;;8.10;97.30;;;;;;5076044;28;20012;-48
2022/01/28 10:50:30;;;;;;;2.72;1.75;;;8.20;97.50;;;;;;5066955;28;20361;-48
2022/01/28 10:53:07;;;;;;;2.35;1.13;;;8.10;97.50;;;;;;5076137;28;20028;-48
2022/01/28 10:55:35;;;;;;;5.07;1.52;;;8.20;97.40;;;;;;5069960;28;20376;-48
2022/01/28 10:58:06;;;;;;;11.98;1.73;;;8.20;97.70;;;;;;5073517;28;20025;-48
2022/01/28 11:00:37;;;;;;;7.68;1.90;;;8.20;97.40;;;;;;5073787;28;20456;-48
2022/01/28 11:03:05;;;;;;;7.40;1.77;;;8.20;97.30;;;;;;5071514;28;20036;-48
2022/01/28 11:05:33;;;;;;;2.50;1.15;;;8.20;97.00;;;;;;5058958;28;20086;-48
2022/01/28 11:07:59;;;;;;;4.78;1.60;;;8.20;96.90;;;;;;5072900;28;20103;-49
2022/01/28 11:10:25;;;;;;;3.17;1.73;;;8.20;97.10;;;;;;5075057;28;20025;-48
2022/01/28 11:12:52;;;;;;;5.13;1.30;;;8.20;97.00;;;;;;5073967;28;20040;-48
2022/01/28 11:15:18;;;;;;;3.67;1.33;;;8.20;97.40;;;;;;5072970;28;20059;-48
2022/01/28 11:17:44;;;;;;;2.55;1.45;;;8.30;97.30;;;;;;5072730;28;20033;-48
2022/01/28 11:20:12;;;;;;;6.30;1.58;;;8.20;97.20;;;;;;5068771;28;20387;-49
2022/01/28 11:23:07;;;;;;;9.93;1.58;;;8.30;97.00;;;;;;5069140;28;20032;-48
2022/01/28 11:25:44;;;;;;;2.15;1.00;;;8.30;97.30;;;;;;5080664;28;20040;-48
2022/01/28 11:28:12;;;;;;;4.18;1.40;;;8.30;97.10;;;;;;5068502;28;20056;-48
2022/01/28 11:30:49;;;;;;;8.60;1.38;;;8.30;97.30;;;;;;5073374;28;20078;-48
2022/01/28 11:33:16;;;;;;;2.75;1.35;;;8.40;97.60;;;;;;5076587;28;20016;-48
2022/01/28 11:35:49;;;;;;;7.25;2.13;;;8.40;97.60;;;;;;5068447;28;20536;-48
2022/01/28 11:38:28;;;;;;;4.45;1.50;;;8.40;97.70;;;;;;5075254;28;20499;-48
2022/01/28 11:40:56;;;;;;;2.72;1.45;;;8.40;97.70;;;;;;5069722;28;20036;-48
2022/01/28 11:43:32;;;;;;;2.03;0.93;;;8.30;97.70;;;;;;5072596;28;20350;-48
2022/01/28 11:46:05;;;;;;;4.32;1.10;;;8.30;97.60;;;;;;5071332;28;20022;-49
2022/01/28 11:48:53;;;;;;;7.10;1.30;;;8.40;97.70;;;;;;5067039;28;20025;-48
2022/01/28 11:51:24;;;;;;;4.55;1.75;;;8.30;97.40;;;;;;5066197;28;20024;-48
2022/01/28 11:53:58;;;;;;;2.33;1.02;;;8.30;97.50;;;;;;5075638;28;20040;-48
2022/01/28 11:56:24;;;;;;;1.85;0.85;;;8.30;97.40;;;;;;5068748;28;20047;-48
2022/01/28 11:59:01;;;;;;;2.03;1.15;;;8.40;97.40;;;;;;5071817;28;20043;-48
2022/01/28 12:01:39;;;;;;;3.05;1.10;;;8.30;97.40;;;;;;5065230;28;20119;-48
2022/01/28 12:04:23;;;;;;;1.75;1.00;;;8.40;97.50;;;;;;5068318;28;20024;-49
2022/01/28 12:07:10;;;;;;;1.90;1.10;;;8.40;97.40;;;;;;5067739;28;20443;-47
2022/01/28 12:09:38;;;;;;;3.83;1.17;;;8.30;97.50;;;;;;5060944;28;20039;-49
2022/01/28 12:12:09;;;;;;;12.60;1.15;;;8.40;97.50;;;;;;5065097;28;20025;-48
2022/01/28 12:14:52;;;;;;;1.73;0.95;;;8.30;97.50;;;;;;5072612;28;20024;-48
2022/01/28 12:17:30;;;;;;;1.35;1.05;;;8.40;97.50;;;;;;5072463;28;20435;-48
2022/01/28 12:20:19;;;;;;;1.30;0.95;;;8.40;97.50;;;;;;5070396;28;20086;-48
2022/01/28 12:23:09;;;;;;;1.75;1.23;;;8.30;97.50;;;;;;5064955;28;20063;-48
2022/01/28 12:25:43;;;;;;;2.43;1.10;;;8.30;97.30;;;;;;5074710;28;20424;-48
2022/01/28 12:28:22;;;;;;;2.72;1.27;;;8.30;97.30;;;;;;5069402;28;20367;-48
2022/01/28 12:30:58;;;;;;;4.32;1.10;;;8.40;97.30;;;;;;5069875;28;20094;-48
2022/01/28 12:33:26;;;;;;;5.47;1.10;;;8.40;97.50;;;;;;5069503;28;20031;-48
2022/01/28 12:35:55;;;;;;;5.00;1.23;;;8.40;97.60;;;;;;5065789;28;20347;-48
2022/01/28 12:38:24;;;;;;;0.73;0.70;;;8.40;97.60;;;;;;5072762;28;20027;-48
2022/01/28 12:40:53;;;;;;;1.02;0.80;;;8.40;97.60;;;;;;5071073;28;20032;-48
2022/01/28 12:43:22;;;;;;;8.88;1.27;;;8.40;97.70;;;;;;5067792;28;20039;-49
2022/01/28 12:46:09;;;;;;;1.27;1.05;;;8.40;97.60;;;;;;5070122;28;20454;-48
2022/01/28 12:48:35;;;;;;;2.72;1.05;;;8.40;97.80;;;;;;5071844;28;20061;-48
2022/01/28 12:51:03;;;;;;;5.85;0.95;;;8.40;97.90;;;;;;5068751;28;20051;-48
2022/01/28 12:53:40;;;;;;;1.20;0.75;;;8.40;97.90;;;;;;5065414;28;20029;-49
2022/01/28 12:56:07;;;;;;;8.00;1.60;;;8.40;97.90;;;;;;5067581;28;20090;-48
2022/01/28 12:58:38;;;;;;;1.40;0.98;;;8.40;97.90;;;;;;5072058;28;20210;-48
2022/01/28 13:01:09;;;;;;;2.17;1.13;;;8.40;97.90;;;;;;5065695;28;20028;-48
2022/01/28 13:03:46;;;;;;;1.52;1.13;;;8.40;97.90;;;;;;5065510;28;20115;-48
2022/01/28 13:08:24;;;;;;;4.25;1.52;;;8.40;97.90;;;;;;5057368;28;20033;-49
2022/01/28 13:09:14;;;;;;;3.10;0.95;;;8.40;97.90;;;;;;5065625;28;20040;-48
2022/01/28 13:11:52;;;;;;;2.83;1.35;;;8.40;97.80;;;;;;5070530;28;20539;-48
2022/01/28 13:14:20;;;;;;;2.08;0.65;;;8.40;97.70;;;;;;5069567;28;20111;-48
2022/01/28 13:16:48;;;;;;;7.72;1.30;;;8.40;97.60;;;;;;5066336;28;20389;-48
2022/01/28 13:19:15;;;;;;;5.32;1.05;;;8.40;97.70;;;;;;5070641;28;20087;-48
2022/01/28 13:21:43;;;;;;;7.80;1.30;;;8.40;97.70;;;;;;5064823;28;20025;-48
2022/01/28 13:24:19;;;;;;;4.13;0.88;;;8.40;97.60;;;;;;5070539;28;20052;-48
2022/01/28 13:27:04;;;;;;;6.10;1.67;;;8.40;97.40;;;;;;5069204;28;20028;-48
2022/01/28 13:29:37;;;;;;;4.18;1.20;;;8.40;97.20;;;;;;5068080;28;20515;-48
2022/01/28 13:32:06;;;;;;;1.77;1.05;;;8.40;97.20;;;;;;5070816;28;20032;-49
2022/01/28 13:34:52;;;;;;;1.27;1.17;;;8.40;97.20;;;;;;5067212;28;20075;-48
2022/01/28 13:37:40;;;;;;;6.90;1.42;;;8.40;97.10;;;;;;5066166;28;20036;-48
2022/01/28 13:40:11;;;;;;;3.67;1.33;;;8.40;96.90;;;;;;5071966;28;20404;-48
2022/01/28 13:43:13;;;;;;;2.00;1.00;;;8.40;97.10;;;;;;5070670;28;20599;-48
2022/01/28 13:45:53;;;;;;;1.75;1.38;;;8.40;97.00;;;;;;5071242;28;20020;-48
2022/01/28 13:48:39;;;;;;;1.65;1.17;;;8.40;97.00;;;;;;5065729;28;20117;-48
2022/01/28 13:51:17;;;;;;;2.22;1.17;;;8.40;97.00;;;;;;5070545;28;20088;-48
2022/01/28 13:56:32;;;;;;;8.60;1.38;;;8.40;96.90;;;;;;5070147;28;20044;-48
2022/01/28 13:58:58;;;;;;;1.08;0.57;;;8.40;96.80;;;;;;5072681;28;20107;-48
2022/01/28 14:01:25;;;;;;;1.02;0.98;;;8.40;96.70;;;;;;5072827;28;20116;-48
2022/01/28 14:04:02;;;;;;;5.88;1.38;;;8.40;96.70;;;;;;5067952;28;20350;-49
2022/01/28 14:06:36;;;;;;;9.77;1.70;;;8.40;96.70;;;;;;5066328;28;20028;-48
2022/01/28 14:09:11;;;;;;;2.05;1.20;;;8.50;96.60;;;;;;5067442;28;20513;-48
2022/01/28 14:11:50;;;;;;;9.85;1.33;;;8.40;96.50;;;;;;5068221;28;20052;-48
2022/01/28 14:14:23;;;;;;;1.42;0.70;;;8.40;96.50;;;;;;5078125;28;20035;-48
2022/01/28 14:16:50;;;;;;;4.63;1.67;;;8.40;96.50;;;;;;5075273;28;20036;-48
2022/01/28 14:19:16;;;;;;;6.80;1.60;;;8.40;96.50;;;;;;5074572;28;20078;-48
2022/01/28 14:21:43;;;;;;;3.28;1.05;;;8.40;96.50;;;;;;5070334;28;20024;-48
2022/01/28 14:24:12;;;;;;;4.72;1.00;;;8.40;96.80;;;;;;5081015;28;20389;-48
2022/01/28 14:26:43;;;;;;;3.75;0.80;;;8.40;96.40;;;;;;5068179;28;20029;-48
2022/01/28 14:31:37;;;;;;;5.85;1.35;;;8.40;96.30;;;;;;5070731;28;20034;-49
2022/01/28 14:34:03;;;;;;;1.50;0.88;;;8.40;96.30;;;;;;5075699;28;20020;-48
2022/01/28 14:36:29;;;;;;;9.02;1.20;;;8.40;96.30;;;;;;5064302;28;20029;-48